createdAt,value
2023-05-02T00:01:31.802Z,13.29
2023-05-02T00:03:59.884Z,13.13
2023-05-02T00:06:28.011Z,13.12
2023-05-02T00:08:56.205Z,13.10
2023-05-02T00:11:25.474Z,13.06
2023-05-02T00:13:53.452Z,13.04
2023-05-02T00:16:21.537Z,12.97
2023-05-02T00:18:49.670Z,12.97
2023-05-02T00:21:17.582Z,12.91
2023-05-02T00:23:45.487Z,12.82
2023-05-02T00:26:13.394Z,12.83
2023-05-02T00:28:42.676Z,12.97
2023-05-02T00:31:10.601Z,12.85
2023-05-02T00:33:38.525Z,12.72
2023-05-02T00:36:14.122Z,12.67
2023-05-02T00:38:41.969Z,12.49
2023-05-02T00:41:09.941Z,12.60
2023-05-02T00:43:39.457Z,12.57
2023-05-02T00:46:08.995Z,12.54
2023-05-02T00:48:37.271Z,12.46
2023-05-02T00:51:06.430Z,12.48
2023-05-02T00:53:34.406Z,12.34
2023-05-02T00:56:03.527Z,12.42
2023-05-02T00:58:31.894Z,12.40
2023-05-02T01:01:22.733Z,12.45
2023-05-02T01:04:10.380Z,12.52
2023-05-02T01:06:59.612Z,12.45
2023-05-02T01:09:42.945Z,12.50
2023-05-02T01:12:25.832Z,12.57
2023-05-02T01:14:58.316Z,12.68
2023-05-02T01:17:32.616Z,12.72
2023-05-02T01:20:06.199Z,12.69
2023-05-02T01:22:37.827Z,12.66
2023-05-02T01:25:19.887Z,12.67
2023-05-02T01:28:10.572Z,12.64
2023-05-02T01:30:45.672Z,12.50
2023-05-02T01:33:17.520Z,12.47
2023-05-02T01:35:50.725Z,12.47
2023-05-02T01:38:25.306Z,12.35
2023-05-02T01:40:55.255Z,12.29
2023-05-02T01:43:25.544Z,12.23
2023-05-02T01:45:58.744Z,12.21
2023-05-02T01:48:28.762Z,12.10
2023-05-02T01:50:59.532Z,12.12
2023-05-02T01:53:31.911Z,12.06
2023-05-02T01:56:01.614Z,12.05
2023-05-02T01:58:33.335Z,12.00
2023-05-02T02:01:05.738Z,11.90
2023-05-02T02:03:34.423Z,11.87
2023-05-02T02:06:04.417Z,11.89
2023-05-02T02:08:32.414Z,11.91
2023-05-02T02:11:09.998Z,11.79
2023-05-02T02:13:46.145Z,11.87
2023-05-02T02:16:25.978Z,11.80
2023-05-02T02:18:58.338Z,11.88
2023-05-02T02:21:32.194Z,11.81
2023-05-02T02:24:03.973Z,11.75
2023-05-02T02:26:32.106Z,11.68
2023-05-02T02:29:02.936Z,11.67
2023-05-02T02:31:39.042Z,11.57
2023-05-02T02:34:07.434Z,11.60
2023-05-02T02:36:45.780Z,11.62
2023-05-02T02:39:29.541Z,11.54
2023-05-02T02:42:12.883Z,11.53
2023-05-02T02:45:07.009Z,11.45
2023-05-02T02:47:45.689Z,11.42
2023-05-02T02:50:24.219Z,11.44
2023-05-02T02:52:56.816Z,11.36
2023-05-02T02:55:41.558Z,11.26
2023-05-02T02:58:26.683Z,11.25
2023-05-02T03:00:55.941Z,11.24
2023-05-02T03:03:29.173Z,11.23
2023-05-02T03:05:58.245Z,11.25
2023-05-02T03:08:26.426Z,11.14
2023-05-02T03:10:54.567Z,11.13
2023-05-02T03:13:22.478Z,11.14
2023-05-02T03:16:32.516Z,11.02
2023-05-02T03:19:02.105Z,10.97
2023-05-02T03:21:31.481Z,11.02
2023-05-02T03:24:01.374Z,10.92
2023-05-02T03:26:30.050Z,10.83
2023-05-02T03:28:58.506Z,10.75
2023-05-02T03:31:26.991Z,10.74
2023-05-02T03:33:55.038Z,10.74
2023-05-02T03:36:24.330Z,10.67
2023-05-02T03:38:52.215Z,10.66
2023-05-02T03:41:20.937Z,10.67
2023-05-02T03:43:48.893Z,10.63
2023-05-02T03:46:16.816Z,10.60
2023-05-02T03:48:46.413Z,10.51
2023-05-02T03:51:14.456Z,10.43
2023-05-02T03:53:43.786Z,10.44
2023-05-02T03:56:12.064Z,10.51
2023-05-02T03:58:39.970Z,10.56
2023-05-02T04:01:16.073Z,10.50
2023-05-02T04:03:44.501Z,10.48
2023-05-02T04:06:13.127Z,10.38
2023-05-02T04:08:41.229Z,10.39
2023-05-02T04:11:10.551Z,10.38
2023-05-02T04:13:38.502Z,10.37
2023-05-02T04:16:07.318Z,10.38
2023-05-02T04:18:35.438Z,10.38
2023-05-02T04:21:03.377Z,10.41
2023-05-02T04:23:31.429Z,10.37
2023-05-02T04:25:59.393Z,10.40
2023-05-02T04:28:28.753Z,10.32
2023-05-02T04:30:58.529Z,10.42
2023-05-02T04:33:26.472Z,10.47
2023-05-02T04:35:54.559Z,10.49
2023-05-02T04:38:22.546Z,10.51
2023-05-02T04:40:52.358Z,10.74
2023-05-02T04:43:21.063Z,10.69
2023-05-02T04:45:51.878Z,10.70
2023-05-02T04:48:19.920Z,10.94
2023-05-02T04:50:47.960Z,11.10
2023-05-02T04:53:15.974Z,11.20
2023-05-02T04:55:44.049Z,11.37
2023-05-02T04:58:12.622Z,11.31
2023-05-02T05:00:40.757Z,11.29
2023-05-02T05:03:10.172Z,11.19
2023-05-02T05:05:38.316Z,10.88
2023-05-02T05:08:06.340Z,10.85
2023-05-02T05:10:34.334Z,10.80
2023-05-02T05:13:02.487Z,10.81
2023-05-02T05:15:32.255Z,10.81
2023-05-02T05:18:00.118Z,10.74
2023-05-02T05:20:29.567Z,10.81
2023-05-02T05:22:57.550Z,10.82
2023-05-02T05:25:27.561Z,10.97
2023-05-02T05:27:56.245Z,10.97
2023-05-02T05:30:25.131Z,10.99
2023-05-02T05:32:53.154Z,11.20
2023-05-02T05:35:21.242Z,11.07
2023-05-02T05:37:50.618Z,11.12
2023-05-02T05:40:18.611Z,11.14
2023-05-02T05:42:46.617Z,11.26
2023-05-02T05:45:14.969Z,11.29
2023-05-02T05:47:42.932Z,11.34
2023-05-02T05:50:12.025Z,11.41
2023-05-02T05:52:39.982Z,11.55
2023-05-02T05:55:11.108Z,11.40
2023-05-02T05:57:39.147Z,11.54
2023-05-02T06:00:10.664Z,11.79
2023-05-02T06:02:38.762Z,11.82
2023-05-02T06:05:07.631Z,11.98
2023-05-02T06:07:35.656Z,12.39
2023-05-02T06:10:03.641Z,12.78
2023-05-02T06:12:33.523Z,12.68
2023-05-02T06:15:01.988Z,12.76
2023-05-02T06:17:30.006Z,12.65
2023-05-02T06:19:58.215Z,12.25
2023-05-02T06:22:26.539Z,12.13
2023-05-02T06:24:54.689Z,12.39
2023-05-02T06:27:22.634Z,12.64
2023-05-02T06:29:54.488Z,12.65
2023-05-02T06:32:22.835Z,12.77
2023-05-02T06:34:50.887Z,12.76
2023-05-02T06:37:18.732Z,13.07
2023-05-02T06:39:46.672Z,12.78
2023-05-02T06:42:14.603Z,12.68
2023-05-02T06:44:42.559Z,12.51
2023-05-02T06:47:11.951Z,12.56
2023-05-02T06:49:39.954Z,12.58
2023-05-02T06:52:07.875Z,12.50
2023-05-02T06:54:35.850Z,12.51
2023-05-02T06:57:03.890Z,12.39
2023-05-02T06:59:32.225Z,12.44
2023-05-02T07:02:00.110Z,12.78
2023-05-02T07:04:29.485Z,13.12
2023-05-02T07:06:57.516Z,13.14
2023-05-02T07:09:25.591Z,13.27
2023-05-02T07:11:53.423Z,13.32
2023-05-02T07:14:21.554Z,13.73
2023-05-02T07:16:49.722Z,14.06
2023-05-02T07:19:17.693Z,14.10
2023-05-02T07:21:46.994Z,14.20
2023-05-02T07:24:14.901Z,14.06
2023-05-02T07:26:42.925Z,14.06
2023-05-02T07:29:10.905Z,13.79
2023-05-02T07:31:39.426Z,13.85
2023-05-02T07:34:07.462Z,13.87
2023-05-02T07:36:35.317Z,13.85
2023-05-02T07:39:04.803Z,13.77
2023-05-02T07:41:32.690Z,13.81
2023-05-02T07:44:00.574Z,13.52
2023-05-02T07:46:28.532Z,13.64
2023-05-02T07:48:56.465Z,13.52
2023-05-02T07:51:26.216Z,13.61
2023-05-02T07:53:55.692Z,13.46
2023-05-02T07:56:25.059Z,13.55
2023-05-02T07:58:52.973Z,13.43
2023-05-02T08:01:21.186Z,13.52
2023-05-02T08:03:49.784Z,13.71
2023-05-02T08:06:17.959Z,13.71
2023-05-02T08:08:45.960Z,14.04
2023-05-02T08:11:13.861Z,14.16
2023-05-02T08:13:43.143Z,13.80
2023-05-02T08:16:11.315Z,13.58
2023-05-02T08:18:39.246Z,13.71
2023-05-02T08:21:07.243Z,13.68
2023-05-02T08:23:35.215Z,13.54
2023-05-02T08:26:03.062Z,13.35
2023-05-02T08:28:31.306Z,13.24
2023-05-02T08:31:00.709Z,13.24
2023-05-02T08:33:28.916Z,13.20
2023-05-02T08:35:56.943Z,13.27
2023-05-02T08:38:24.927Z,13.21
2023-05-02T08:40:52.829Z,13.28
2023-05-02T08:43:21.415Z,13.32
2023-05-02T08:45:55.381Z,13.50
2023-05-02T08:48:25.925Z,13.62
2023-05-02T08:50:55.898Z,13.65
2023-05-02T08:53:26.703Z,13.47
2023-05-02T08:55:55.474Z,13.73
2023-05-02T08:58:23.419Z,13.83
2023-05-02T09:00:53.418Z,13.87
2023-05-02T09:03:31.347Z,13.95
2023-05-02T09:06:09.238Z,13.82
2023-05-02T09:08:38.289Z,13.67
2023-05-02T09:11:07.039Z,13.56
2023-05-02T09:13:40.307Z,13.66
2023-05-02T09:16:13.058Z,13.90
2023-05-02T09:18:49.705Z,13.69
2023-05-02T09:21:21.494Z,13.52
2023-05-02T09:23:52.449Z,13.65
2023-05-02T09:26:23.810Z,13.72
2023-05-02T09:28:53.917Z,13.85
2023-05-02T09:31:43.447Z,13.93
2023-05-02T09:34:18.366Z,13.65
2023-05-02T09:36:50.740Z,13.95
2023-05-02T09:39:23.799Z,13.93
2023-05-02T09:41:54.090Z,14.45
2023-05-02T09:44:25.445Z,14.36
2023-05-02T09:46:55.997Z,14.52
2023-05-02T09:49:42.019Z,14.41
2023-05-02T09:52:14.568Z,14.28
2023-05-02T09:54:43.077Z,14.47
2023-05-02T09:57:11.553Z,14.39
2023-05-02T09:59:41.212Z,14.26
2023-05-02T10:02:11.283Z,13.75
2023-05-02T10:04:42.590Z,14.01
2023-05-02T10:07:13.250Z,14.18
2023-05-02T10:09:45.485Z,14.26
2023-05-02T10:12:16.917Z,14.06
2023-05-02T10:14:51.836Z,13.85
2023-05-02T10:17:32.161Z,14.22
2023-05-02T10:20:05.631Z,13.69
2023-05-02T10:22:36.065Z,13.53
2023-05-02T10:25:05.257Z,13.44
2023-05-02T10:27:34.591Z,13.19
2023-05-02T10:30:04.342Z,13.37
2023-05-02T10:32:34.542Z,12.53
2023-05-02T10:35:08.024Z,11.93
2023-05-02T10:37:39.747Z,11.61
2023-05-02T10:40:12.752Z,11.24
2023-05-02T10:42:46.575Z,11.32
2023-05-02T10:45:31.898Z,11.58
2023-05-02T10:48:17.616Z,10.92
2023-05-02T10:50:48.612Z,10.58
2023-05-02T10:53:34.711Z,10.46
2023-05-02T10:56:22.129Z,11.00
2023-05-02T10:58:52.028Z,11.25
2023-05-02T11:01:41.697Z,11.32
2023-05-02T11:04:12.930Z,11.78
2023-05-02T11:07:28.066Z,11.93
2023-05-02T11:10:27.658Z,12.12
2023-05-02T11:13:00.874Z,11.72
2023-05-02T11:16:00.601Z,11.73
2023-05-02T11:18:28.302Z,11.78
2023-05-02T11:21:31.121Z,11.71
2023-05-02T11:24:44.427Z,12.40
2023-05-02T11:27:43.842Z,12.49
2023-05-02T11:30:13.512Z,12.29
2023-05-02T11:33:18.210Z,11.89
2023-05-02T11:35:50.844Z,12.38
2023-05-02T11:38:21.675Z,12.78
2023-05-02T11:40:57.332Z,12.58
2023-05-02T11:43:29.352Z,12.45
2023-05-02T11:46:01.756Z,12.32
2023-05-02T11:48:32.109Z,12.38
2023-05-02T11:51:05.002Z,12.13
2023-05-02T11:53:33.970Z,11.98
2023-05-02T11:56:05.728Z,11.75
2023-05-02T11:58:34.378Z,11.90
2023-05-02T12:01:15.086Z,11.83
2023-05-02T12:03:43.656Z,11.99
2023-05-02T12:06:14.856Z,12.62
2023-05-02T12:08:45.426Z,12.84
2023-05-02T12:11:17.174Z,13.01
2023-05-02T12:13:50.905Z,13.39
2023-05-02T12:16:20.739Z,13.03
2023-05-02T12:18:49.308Z,12.52
2023-05-02T12:21:18.828Z,12.21
2023-05-02T12:23:47.595Z,12.75
2023-05-02T12:26:24.303Z,12.85
2023-05-02T12:28:54.703Z,12.84
2023-05-02T12:31:24.028Z,13.49
2023-05-02T12:33:55.318Z,13.60
2023-05-02T12:36:23.691Z,13.80
2023-05-02T12:38:55.121Z,13.93
2023-05-02T12:41:35.077Z,12.79
2023-05-02T12:44:03.612Z,12.90
2023-05-02T12:46:32.334Z,12.47
2023-05-02T12:49:06.553Z,12.16
2023-05-02T12:51:34.749Z,12.31
2023-05-02T12:54:03.170Z,12.03
2023-05-02T12:56:33.153Z,12.36
2023-05-02T12:59:05.317Z,12.73
2023-05-02T13:01:35.199Z,12.53
2023-05-02T13:04:03.591Z,12.64
2023-05-02T13:06:31.769Z,12.11
2023-05-02T13:09:00.053Z,12.65
2023-05-02T13:11:28.256Z,12.65
2023-05-02T13:13:56.588Z,12.81
2023-05-02T13:16:25.996Z,12.47
2023-05-02T13:18:54.184Z,12.59
2023-05-02T13:21:22.134Z,12.26
2023-05-02T13:23:51.792Z,13.24
2023-05-02T13:26:19.703Z,13.26
2023-05-02T13:28:47.659Z,12.95
2023-05-02T13:31:15.680Z,13.23
2023-05-02T13:33:45.445Z,13.02
2023-05-02T13:36:13.186Z,12.87
2023-05-02T13:38:41.495Z,12.90
2023-05-02T13:41:09.504Z,12.81
2023-05-02T13:43:37.490Z,12.17
2023-05-02T13:46:05.476Z,12.02
2023-05-02T13:48:33.474Z,12.40
2023-05-02T13:51:03.260Z,12.68
2023-05-02T13:53:33.529Z,12.25
2023-05-02T13:56:01.442Z,11.64
2023-05-02T13:58:29.408Z,11.52
2023-05-02T14:00:57.830Z,12.01
2023-05-02T14:03:26.040Z,11.86
2023-05-02T14:05:54.002Z,11.72
2023-05-02T14:08:23.311Z,11.92
2023-05-02T14:10:51.301Z,11.54
2023-05-02T14:13:19.183Z,11.65
2023-05-02T14:15:47.225Z,11.69
2023-05-02T14:18:16.515Z,11.93
2023-05-02T14:20:44.493Z,12.03
2023-05-02T14:23:12.461Z,11.83
2023-05-02T14:25:41.803Z,11.15
2023-05-02T14:28:09.683Z,11.10
2023-05-02T14:30:37.626Z,10.99
2023-05-02T14:33:05.619Z,11.16
2023-05-02T14:35:33.671Z,11.24
2023-05-02T14:38:01.681Z,11.22
2023-05-02T14:40:29.580Z,10.91
2023-05-02T14:42:58.862Z,11.23
2023-05-02T14:45:26.772Z,10.68
2023-05-02T14:47:54.700Z,10.55
2023-05-02T14:50:22.665Z,10.84
2023-05-02T14:52:50.835Z,10.98
2023-05-02T14:55:18.902Z,10.75
2023-05-02T14:57:47.148Z,10.52
2023-05-02T15:00:18.340Z,10.53
2023-05-02T15:02:46.430Z,10.80
2023-05-02T15:05:14.438Z,11.23
2023-05-02T15:07:42.392Z,12.05
2023-05-02T15:10:10.494Z,12.86
2023-05-02T15:12:38.453Z,13.06
2023-05-02T15:15:09.097Z,13.07
2023-05-02T15:17:39.385Z,11.89
2023-05-02T15:20:09.256Z,12.33
2023-05-02T15:22:37.078Z,12.14
2023-05-02T15:25:05.913Z,12.44
2023-05-02T15:27:33.883Z,12.31
2023-05-02T15:30:03.586Z,11.95
2023-05-02T15:32:31.796Z,11.99
2023-05-02T15:35:01.141Z,11.61
2023-05-02T15:37:29.096Z,11.37
2023-05-02T15:39:57.005Z,11.41
2023-05-02T15:42:25.001Z,11.15
2023-05-02T15:44:53.980Z,11.25
2023-05-02T15:47:23.209Z,11.93
2023-05-02T15:49:53.872Z,11.90
2023-05-02T15:52:23.341Z,11.86
2023-05-02T15:54:51.786Z,11.67
2023-05-02T15:57:21.270Z,12.70
2023-05-02T15:59:49.210Z,13.66
2023-05-02T16:02:17.190Z,14.18
2023-05-02T16:04:45.129Z,14.27
2023-05-02T16:07:13.078Z,14.28
2023-05-02T16:09:42.547Z,13.60
2023-05-02T16:12:11.015Z,14.12
2023-05-02T16:14:38.990Z,14.83
2023-05-02T16:17:07.005Z,15.37
2023-05-02T16:19:34.939Z,14.99
2023-05-02T16:22:02.880Z,14.82
2023-05-02T16:24:30.878Z,14.77
2023-05-02T16:27:00.699Z,14.59
2023-05-02T16:29:28.463Z,15.25
2023-05-02T16:31:56.437Z,14.83
2023-05-02T16:34:24.503Z,14.76
2023-05-02T16:36:52.969Z,14.32
2023-05-02T16:39:20.932Z,14.01
2023-05-02T16:41:49.338Z,14.62
2023-05-02T16:44:18.768Z,14.16
2023-05-02T16:46:46.675Z,13.38
2023-05-02T16:49:14.761Z,13.54
2023-05-02T16:51:42.868Z,13.80
2023-05-02T16:54:11.126Z,14.11
2023-05-02T16:56:40.778Z,14.18
2023-05-02T16:59:10.007Z,13.63
2023-05-02T17:01:39.422Z,14.01
2023-05-02T17:04:07.435Z,13.89
2023-05-02T17:06:35.532Z,12.98
2023-05-02T17:09:04.065Z,13.06
2023-05-02T17:11:31.905Z,13.77
2023-05-02T17:13:59.884Z,14.02
2023-05-02T17:16:27.745Z,14.19
2023-05-02T17:18:57.419Z,14.19
2023-05-02T17:21:25.387Z,14.89
2023-05-02T17:23:53.501Z,15.19
2023-05-02T17:26:22.032Z,14.44
2023-05-02T17:28:53.380Z,13.84
2023-05-02T17:31:21.406Z,13.69
2023-05-02T17:33:49.391Z,13.22
2023-05-02T17:36:18.620Z,12.60
2023-05-02T17:38:46.661Z,12.47
2023-05-02T17:41:15.307Z,12.49
2023-05-02T17:43:43.462Z,12.34
2023-05-02T17:46:11.869Z,12.52
2023-05-02T17:48:40.434Z,12.36
2023-05-02T17:51:08.322Z,12.21
2023-05-02T17:53:37.720Z,12.16
2023-05-02T17:56:06.767Z,12.10
2023-05-02T17:58:36.444Z,12.20
2023-05-02T18:01:11.366Z,11.83
2023-05-02T18:03:40.182Z,11.77
2023-05-02T18:06:08.972Z,11.64
2023-05-02T18:08:38.395Z,11.54
2023-05-02T18:11:06.327Z,11.49
2023-05-02T18:13:36.134Z,11.48
2023-05-02T18:16:06.306Z,11.54
2023-05-02T18:18:36.264Z,11.59
2023-05-02T18:21:08.075Z,11.61
2023-05-02T18:23:36.414Z,11.61
2023-05-02T18:26:12.913Z,11.62
2023-05-02T18:28:42.669Z,11.69
2023-05-02T18:31:17.093Z,11.69
2023-05-02T18:33:46.467Z,11.59
2023-05-02T18:36:14.595Z,11.72
2023-05-02T18:38:42.505Z,11.65
2023-05-02T18:41:12.270Z,11.64
2023-05-02T18:43:39.974Z,11.68
2023-05-02T18:46:09.447Z,11.60
2023-05-02T18:48:37.494Z,11.57
2023-05-02T18:51:06.133Z,11.68
2023-05-02T18:53:34.092Z,11.52
2023-05-02T18:56:02.093Z,11.70
2023-05-02T18:58:31.486Z,11.76
2023-05-02T19:00:59.592Z,11.56
2023-05-02T19:03:27.931Z,11.52
2023-05-02T19:05:56.812Z,11.47
2023-05-02T19:08:24.791Z,11.41
2023-05-02T19:10:52.744Z,11.44
2023-05-02T19:13:20.718Z,11.31
2023-05-02T19:15:50.055Z,11.21
2023-05-02T19:18:18.047Z,11.15
2023-05-02T19:20:45.934Z,11.15
2023-05-02T19:23:19.078Z,11.05
2023-05-02T19:25:48.193Z,11.07
2023-05-02T19:28:17.116Z,10.99
2023-05-02T19:30:45.865Z,10.92
2023-05-02T19:33:15.155Z,10.86
2023-05-02T19:35:42.978Z,10.82
2023-05-02T19:38:10.915Z,10.85
2023-05-02T19:40:38.806Z,10.91
2023-05-02T19:43:06.800Z,10.84
2023-05-02T19:45:35.166Z,10.69
2023-05-02T19:48:03.477Z,10.70
2023-05-02T19:50:33.223Z,10.70
2023-05-02T19:53:01.618Z,10.61
2023-05-02T19:55:29.553Z,10.60
2023-05-02T19:57:57.500Z,10.56
2023-05-02T20:00:25.423Z,10.64
2023-05-02T20:02:53.395Z,10.50
2023-05-02T20:05:21.599Z,10.28
2023-05-02T20:07:51.156Z,10.19
2023-05-02T20:10:19.293Z,10.21
2023-05-02T20:12:47.320Z,10.21
2023-05-02T20:15:16.327Z,10.10
2023-05-02T20:17:44.492Z,10.07
2023-05-02T20:20:13.596Z,10.02
2023-05-02T20:22:41.581Z,10.00
2023-05-02T20:25:12.800Z,9.94
2023-05-02T20:27:40.853Z,10.04
2023-05-02T20:30:10.626Z,9.98
2023-05-02T20:32:38.637Z,9.93
2023-05-02T20:35:07.689Z,9.85
2023-05-02T20:37:36.099Z,9.90
2023-05-02T20:40:05.816Z,9.82
2023-05-02T20:42:34.990Z,9.82
2023-05-02T20:45:07.073Z,9.81
2023-05-02T20:47:35.488Z,9.71
2023-05-02T20:50:03.592Z,9.72
2023-05-02T20:52:31.726Z,9.80
2023-05-02T20:55:01.441Z,9.70
2023-05-02T20:57:29.160Z,9.72
2023-05-02T20:59:59.447Z,9.61
2023-05-02T21:02:28.003Z,9.63
2023-05-02T21:04:56.441Z,9.67
2023-05-02T21:07:24.499Z,9.52
2023-05-02T21:09:52.383Z,9.44
2023-05-02T21:12:20.462Z,9.43
2023-05-02T21:14:48.357Z,9.36
2023-05-02T21:17:17.719Z,9.45
2023-05-02T21:19:45.736Z,9.40
2023-05-02T21:22:13.608Z,9.35
2023-05-02T21:24:41.874Z,9.35
2023-05-02T21:27:09.793Z,9.39
2023-05-02T21:29:37.788Z,9.40
2023-05-02T21:32:06.729Z,9.37
2023-05-02T21:34:36.006Z,9.39
2023-05-02T21:37:04.548Z,9.34
2023-05-02T21:39:32.473Z,9.50
2023-05-02T21:42:01.399Z,9.48
2023-05-02T21:44:29.305Z,9.44
2023-05-02T21:46:57.301Z,9.46
2023-05-02T21:49:25.342Z,9.45
2023-05-02T21:51:54.699Z,9.39
2023-05-02T21:54:22.587Z,9.40
2023-05-02T21:56:50.471Z,9.32
2023-05-02T21:59:18.341Z,9.50
2023-05-02T22:01:46.304Z,9.46
2023-05-02T22:04:14.312Z,9.41
2023-05-02T22:06:42.774Z,9.33
2023-05-02T22:09:12.277Z,9.40
2023-05-02T22:11:40.237Z,9.43
2023-05-02T22:14:08.189Z,9.38
2023-05-02T22:16:37.353Z,9.29
2023-05-02T22:19:05.459Z,9.28
2023-05-02T22:21:33.637Z,9.24
2023-05-02T22:24:02.653Z,9.17
2023-05-02T22:26:32.557Z,9.25
2023-05-02T22:29:00.526Z,9.19
2023-05-02T22:31:28.592Z,9.13
2023-05-02T22:33:56.548Z,9.15
2023-05-02T22:36:24.535Z,9.22
2023-05-02T22:38:52.422Z,9.17
2023-05-02T22:41:20.306Z,9.19
2023-05-02T22:43:50.263Z,9.08
2023-05-02T22:46:18.407Z,9.04
2023-05-02T22:48:46.638Z,9.00
2023-05-02T22:51:14.553Z,9.01
2023-05-02T22:53:42.511Z,9.13
2023-05-02T22:56:10.353Z,9.04
2023-05-02T22:58:38.191Z,9.07
2023-05-02T23:01:07.627Z,9.12
2023-05-02T23:03:35.574Z,9.08
2023-05-02T23:06:03.658Z,9.07
2023-05-02T23:08:31.513Z,9.05
2023-05-02T23:10:59.364Z,9.04
2023-05-02T23:13:27.370Z,9.08
2023-05-02T23:15:55.867Z,8.92
2023-05-02T23:18:25.170Z,8.94
2023-05-02T23:20:53.180Z,8.96
2023-05-02T23:23:21.324Z,8.90
2023-05-02T23:25:49.445Z,8.94
2023-05-02T23:28:17.414Z,8.91
2023-05-02T23:30:45.920Z,8.83
2023-05-02T23:33:14.562Z,8.80
2023-05-02T23:35:44.056Z,8.76
2023-05-02T23:38:12.092Z,8.82
2023-05-02T23:40:40.050Z,8.79
2023-05-02T23:43:08.048Z,8.87
2023-05-02T23:45:36.008Z,8.81
2023-05-02T23:48:03.973Z,8.83
2023-05-02T23:50:33.909Z,8.74
2023-05-02T23:53:03.331Z,8.74
2023-05-02T23:55:32.596Z,8.60
2023-05-02T23:58:00.942Z,8.58
